createdAt,value
2022-08-12T00:02:08.017Z,101304.94
2022-08-12T00:04:53.278Z,101307.63
2022-08-12T00:07:39.251Z,101308.47
2022-08-12T00:10:24.700Z,101306.16
2022-08-12T00:13:11.721Z,101306.16
2022-08-12T00:15:57.407Z,101309.72
2022-08-12T00:18:42.836Z,101304.22
2022-08-12T00:21:31.282Z,101307.59
2022-08-12T00:24:18.115Z,101306.69
2022-08-12T00:27:06.115Z,101314.53
2022-08-12T00:29:52.689Z,101309.13
2022-08-12T00:32:37.969Z,101315.56
2022-08-12T00:35:24.400Z,101307.00
2022-08-12T00:38:20.075Z,101311.44
2022-08-12T00:41:05.518Z,101309.03
2022-08-12T00:43:35.114Z,101308.09
2022-08-12T00:46:22.154Z,101303.56
2022-08-12T00:48:49.577Z,101309.63
2022-08-12T00:51:16.499Z,101313.22
2022-08-12T00:53:43.100Z,101311.63
2022-08-12T00:56:10.853Z,101314.22
2022-08-12T00:58:44.696Z,101308.06
2022-08-12T01:01:11.259Z,101292.16
2022-08-12T01:03:59.619Z,101309.47
2022-08-12T01:06:50.905Z,101315.50
2022-08-12T01:09:39.309Z,101304.88
2022-08-12T01:12:08.361Z,101307.47
2022-08-12T01:14:35.160Z,101309.25
2022-08-12T01:17:01.898Z,101299.88
2022-08-12T01:19:28.658Z,101306.28
2022-08-12T01:22:23.496Z,101315.19
2022-08-12T01:24:59.099Z,101315.19
2022-08-12T01:27:27.492Z,101310.88
2022-08-12T01:29:56.920Z,101303.16
2022-08-12T01:32:26.763Z,101316.22
2022-08-12T01:35:01.375Z,101312.81
2022-08-12T01:37:30.563Z,101308.50
2022-08-12T01:40:33.985Z,101298.91
2022-08-12T01:42:50.410Z,101298.94
2022-08-12T01:45:24.763Z,101303.50
2022-08-12T01:48:05.871Z,101298.94
2022-08-12T01:50:44.789Z,101301.56
2022-08-12T01:53:15.925Z,101306.16
2022-08-12T01:55:46.339Z,101309.78
2022-08-12T01:58:25.752Z,101308.97
2022-08-12T02:01:11.879Z,101312.44
2022-08-12T02:04:18.590Z,101296.69
2022-08-12T02:07:24.007Z,101303.81
2022-08-12T02:10:49.984Z,101300.38
2022-08-12T02:13:49.139Z,101296.94
2022-08-12T02:16:30.340Z,101304.84
2022-08-12T02:19:28.545Z,101311.94
2022-08-12T02:22:20.452Z,101311.06
2022-08-12T02:24:48.970Z,101305.06
2022-08-12T02:27:19.018Z,101312.06
2022-08-12T02:29:45.573Z,101303.31
2022-08-12T02:32:13.680Z,101299.81
2022-08-12T02:34:43.889Z,101309.53
2022-08-12T02:37:15.602Z,101298.06
2022-08-12T02:39:49.051Z,101303.38
2022-08-12T02:42:18.979Z,101308.03
2022-08-12T02:44:48.899Z,101309.72
2022-08-12T02:47:18.285Z,101302.69
2022-08-12T02:50:05.931Z,101306.94
2022-08-12T02:52:34.613Z,101308.69
2022-08-12T02:55:28.806Z,101311.38
2022-08-12T02:58:07.074Z,101314.22
2022-08-12T03:00:40.098Z,101316.97
2022-08-12T03:03:09.259Z,101317.81
2022-08-12T03:05:46.801Z,101317.00
2022-08-12T03:08:31.571Z,101318.06
2022-08-12T03:11:11.949Z,101304.13
2022-08-12T03:13:47.127Z,101319.38
2022-08-12T03:16:14.819Z,101312.25
2022-08-12T03:18:46.269Z,101320.00
2022-08-12T03:21:16.981Z,101307.63
2022-08-12T03:23:45.857Z,101320.78
2022-08-12T03:26:13.186Z,101319.75
2022-08-12T03:28:50.836Z,101309.44
2022-08-12T03:31:20.180Z,101306.84
2022-08-12T03:34:00.915Z,101310.34
2022-08-12T03:36:36.373Z,101313.06
2022-08-12T03:39:18.229Z,101294.81
2022-08-12T03:42:06.086Z,101303.44
2022-08-12T03:45:42.065Z,101296.53
2022-08-12T03:48:37.936Z,101297.28
2022-08-12T03:51:23.999Z,101303.31
2022-08-12T03:54:11.274Z,101295.44
2022-08-12T03:56:58.112Z,101289.34
2022-08-12T03:59:43.517Z,101299.88
2022-08-12T04:02:16.836Z,101307.88
2022-08-12T04:04:45.611Z,101311.53
2022-08-12T04:07:13.961Z,101315.22
2022-08-12T04:09:42.697Z,101302.88
2022-08-12T04:12:30.001Z,101308.97
2022-08-12T04:15:00.265Z,101311.59
2022-08-12T04:17:28.511Z,101309.84
2022-08-12T04:19:57.281Z,101312.41
2022-08-12T04:22:30.708Z,101313.25
2022-08-12T04:25:01.221Z,101308.84
2022-08-12T04:27:30.046Z,101311.47
2022-08-12T04:30:29.705Z,101316.75
2022-08-12T04:32:44.707Z,101310.66
2022-08-12T04:35:12.486Z,101307.97
2022-08-12T04:37:59.003Z,101306.28
2022-08-12T04:40:28.218Z,101309.69
2022-08-12T04:42:56.003Z,101314.09
2022-08-12T04:45:22.867Z,101311.53
2022-08-12T04:47:49.525Z,101305.41
2022-08-12T04:50:33.825Z,101320.31
2022-08-12T04:53:02.626Z,101314.16
2022-08-12T04:55:29.970Z,101316.81
2022-08-12T04:57:56.513Z,101309.78
2022-08-12T05:00:23.053Z,101302.69
2022-08-12T05:02:49.647Z,101304.47
2022-08-12T05:05:19.278Z,101311.44
2022-08-12T05:07:54.546Z,101312.22
2022-08-12T05:10:33.978Z,101304.31
2022-08-12T05:13:09.265Z,101308.75
2022-08-12T05:15:53.091Z,101303.34
2022-08-12T05:18:29.134Z,101315.63
2022-08-12T05:20:56.637Z,101308.53
2022-08-12T05:23:23.509Z,101310.25
2022-08-12T05:25:56.226Z,101301.41
2022-08-12T05:28:24.416Z,101303.03
2022-08-12T05:30:51.826Z,101312.66
2022-08-12T05:33:18.622Z,101311.59
2022-08-12T05:35:47.657Z,101310.72
2022-08-12T05:38:34.927Z,101317.72
2022-08-12T05:41:02.842Z,101315.84
2022-08-12T05:43:29.573Z,101319.19
2022-08-12T05:45:56.162Z,101313.78
2022-08-12T05:48:22.624Z,101325.00
2022-08-12T05:50:49.209Z,101317.78
2022-08-12T05:53:16.265Z,101319.53
2022-08-12T05:55:42.788Z,101316.69
2022-08-12T05:58:09.314Z,101332.22
2022-08-12T06:00:37.153Z,101328.56
2022-08-12T06:03:05.953Z,101306.56
2022-08-12T06:05:42.990Z,101318.56
2022-08-12T06:08:21.747Z,101333.34
2022-08-12T06:10:50.168Z,101325.66
2022-08-12T06:13:27.883Z,101336.06
2022-08-12T06:15:55.789Z,101330.50
2022-08-12T06:18:26.498Z,101331.94
2022-08-12T06:21:01.693Z,101342.41
2022-08-12T06:23:29.488Z,101334.56
2022-08-12T06:25:56.904Z,101334.19
2022-08-12T06:28:23.593Z,101344.63
2022-08-12T06:31:08.644Z,101339.84
2022-08-12T06:33:55.345Z,101327.59
2022-08-12T06:36:25.222Z,101347.25
2022-08-12T06:38:57.464Z,101341.06
2022-08-12T06:42:21.266Z,101339.75
2022-08-12T06:44:45.551Z,101350.88
2022-08-12T06:47:12.131Z,101346.13
2022-08-12T06:49:38.655Z,101342.31
2022-08-12T06:52:07.325Z,101349.63
2022-08-12T06:54:35.342Z,101335.91
2022-08-12T06:57:04.816Z,101344.88
2022-08-12T06:59:32.350Z,101343.78
2022-08-12T07:01:58.895Z,101339.31
2022-08-12T07:04:36.335Z,101337.50
2022-08-12T07:07:06.044Z,101345.03
2022-08-12T07:10:06.653Z,101341.97
2022-08-12T07:12:19.667Z,101357.41
2022-08-12T07:14:50.500Z,101354.53
2022-08-12T07:17:17.457Z,101352.13
2022-08-12T07:19:45.421Z,101354.50
2022-08-12T07:22:14.107Z,101352.66
2022-08-12T07:24:40.860Z,101348.72
2022-08-12T07:27:07.457Z,101354.91
2022-08-12T07:29:57.913Z,101354.91
2022-08-12T07:32:24.511Z,101354.97
2022-08-12T07:34:52.385Z,101355.97
2022-08-12T07:37:18.998Z,101360.22
2022-08-12T07:39:51.175Z,101356.84
2022-08-12T07:42:27.252Z,101351.22
2022-08-12T07:44:53.821Z,101354.72
2022-08-12T07:47:20.399Z,101355.28
2022-08-12T07:50:04.147Z,101367.59
2022-08-12T07:52:34.863Z,101370.34
2022-08-12T07:55:02.442Z,101360.41
2022-08-12T07:57:29.002Z,101375.66
2022-08-12T07:59:56.181Z,101379.81
2022-08-12T08:02:26.725Z,101369.50
2022-08-12T08:04:56.682Z,101381.56
2022-08-12T08:07:25.596Z,101380.44
2022-08-12T08:09:58.608Z,101380.19
2022-08-12T08:13:01.686Z,101369.13
2022-08-12T08:16:01.913Z,101367.81
2022-08-12T08:18:27.469Z,101367.44
2022-08-12T08:20:56.307Z,101367.19
2022-08-12T08:23:29.328Z,101369.38
2022-08-12T08:26:01.594Z,101367.25
2022-08-12T08:28:28.092Z,101367.81
2022-08-12T08:30:54.558Z,101356.28
2022-08-12T08:33:24.838Z,101356.41
2022-08-12T08:36:16.412Z,101358.41
2022-08-12T08:38:55.019Z,101347.44
2022-08-12T08:42:19.027Z,101340.91
2022-08-12T08:44:30.508Z,101361.81
2022-08-12T08:46:57.169Z,101349.66
2022-08-12T08:49:23.848Z,101343.66
2022-08-12T08:51:50.331Z,101350.66
2022-08-12T08:54:17.424Z,101346.84
2022-08-12T08:56:44.196Z,101344.31
2022-08-12T08:59:12.601Z,101347.03
2022-08-12T09:01:40.624Z,101351.53
2022-08-12T09:07:00.137Z,101339.47
2022-08-12T09:09:34.062Z,101344.50
2022-08-12T09:12:32.280Z,101334.59
2022-08-12T09:14:58.895Z,101335.47
2022-08-12T09:17:26.018Z,101339.78
2022-08-12T09:19:58.187Z,101335.97
2022-08-12T09:22:29.251Z,101347.06
2022-08-12T09:24:59.854Z,101333.03
2022-08-12T09:28:04.104Z,101344.56
2022-08-12T09:30:18.311Z,101326.03
2022-08-12T09:33:15.247Z,101335.25
2022-08-12T09:36:02.916Z,101326.13
2022-08-12T09:38:31.995Z,101332.66
2022-08-12T09:42:09.600Z,101331.50
2022-08-12T09:44:37.714Z,101344.78
2022-08-12T09:46:56.114Z,101335.09
2022-08-12T09:49:24.938Z,101335.63
2022-08-12T09:51:55.191Z,101329.22
2022-08-12T09:54:33.542Z,101328.34
2022-08-12T09:58:08.001Z,101321.00
2022-08-12T10:00:16.186Z,101323.25
2022-08-12T10:03:06.200Z,101316.84
2022-08-12T10:06:26.510Z,101310.03
2022-08-12T10:08:24.456Z,101318.72
2022-08-12T10:11:20.050Z,101308.53
2022-08-12T10:13:48.703Z,101309.75
2022-08-12T10:16:22.245Z,101311.75
2022-08-12T10:18:57.129Z,101298.56
2022-08-12T10:21:36.335Z,101299.09
2022-08-12T10:24:23.282Z,101301.16
2022-08-12T10:27:08.889Z,101286.47
2022-08-12T10:30:37.672Z,101283.25
2022-08-12T10:32:44.373Z,101286.78
2022-08-12T10:35:15.648Z,101280.84
2022-08-12T10:38:38.229Z,101283.91
2022-08-12T10:40:33.120Z,101282.06
2022-08-12T10:43:19.175Z,101280.63
2022-08-12T10:45:49.548Z,101270.69
2022-08-12T10:48:21.779Z,101268.94
2022-08-12T10:51:01.500Z,101263.47
2022-08-12T10:53:44.987Z,101260.66
2022-08-12T10:56:17.566Z,101252.53
2022-08-12T10:58:47.103Z,101237.66
2022-08-12T11:02:05.258Z,101230.66
2022-08-12T11:04:28.132Z,101242.38
2022-08-12T11:07:08.461Z,101246.50
2022-08-12T11:10:00.354Z,101243.81
2022-08-12T11:12:54.807Z,101237.00
2022-08-12T11:15:20.888Z,101227.16
2022-08-12T11:17:54.183Z,101236.16
2022-08-12T11:20:24.228Z,101223.00
2022-08-12T11:23:01.770Z,101221.78
2022-08-12T11:25:55.412Z,101216.38
2022-08-12T11:28:33.307Z,101223.00
2022-08-12T11:31:02.657Z,101219.44
2022-08-12T11:34:04.820Z,101214.19
2022-08-12T11:36:16.654Z,101207.44
2022-08-12T11:38:50.458Z,101206.03
2022-08-12T11:41:28.084Z,101211.09
2022-08-12T11:43:59.355Z,101198.84
2022-08-12T11:46:26.001Z,101206.88
2022-08-12T11:48:52.906Z,101203.72
2022-08-12T11:51:20.798Z,101200.63
2022-08-12T11:53:57.861Z,101209.38
2022-08-12T11:56:38.773Z,101198.25
2022-08-12T12:02:02.280Z,101194.03
2022-08-12T12:04:31.385Z,101190.16
2022-08-12T12:07:07.224Z,101181.59
2022-08-12T12:09:51.964Z,101185.75
2022-08-12T12:12:24.846Z,101183.44
2022-08-12T12:14:55.020Z,101184.63
2022-08-12T12:17:26.083Z,101182.19
2022-08-12T12:19:55.046Z,101192.75
2022-08-12T12:22:23.165Z,101181.13
2022-08-12T12:24:53.952Z,101169.13
2022-08-12T12:27:42.289Z,101183.09
2022-08-12T12:30:18.043Z,101182.00
2022-08-12T12:32:53.935Z,101184.59
2022-08-12T12:36:06.221Z,101179.13
2022-08-12T12:38:12.598Z,101170.53
2022-08-12T12:40:43.865Z,101170.94
2022-08-12T12:43:11.268Z,101154.03
2022-08-12T12:45:39.313Z,101168.28
2022-08-12T12:48:11.855Z,101162.50
2022-08-12T12:50:42.742Z,101168.78
2022-08-12T12:54:06.439Z,101148.25
2022-08-12T12:56:15.641Z,101154.09
2022-08-12T12:58:43.332Z,101147.56
2022-08-12T13:01:27.944Z,101149.25
2022-08-12T13:04:01.649Z,101128.66
2022-08-12T13:06:31.985Z,101142.66
2022-08-12T13:09:03.040Z,101133.03
2022-08-12T13:11:41.952Z,101128.94
2022-08-12T13:14:28.151Z,101150.88
2022-08-12T13:17:00.991Z,101132.88
2022-08-12T13:19:38.862Z,101129.41
2022-08-12T13:22:18.186Z,101121.28
2022-08-12T13:24:45.170Z,101124.44
2022-08-12T13:27:11.632Z,101128.47
2022-08-12T13:29:39.229Z,101139.00
2022-08-12T13:32:18.605Z,101118.25
2022-08-12T13:34:53.393Z,101136.13
2022-08-12T13:37:54.395Z,101127.06
2022-08-12T13:40:18.363Z,101125.56
2022-08-12T13:42:49.070Z,101122.09
2022-08-12T13:45:17.759Z,101121.25
2022-08-12T13:48:19.698Z,101126.84
2022-08-12T13:50:46.534Z,101104.06
2022-08-12T13:53:24.173Z,101118.47
2022-08-12T13:56:01.654Z,101114.16
2022-08-12T13:58:30.051Z,101106.28
2022-08-12T14:00:58.131Z,101100.34
2022-08-12T14:03:28.644Z,101109.00
2022-08-12T14:06:15.324Z,101090.59
2022-08-12T14:08:43.210Z,101112.38
2022-08-12T14:11:12.608Z,101095.09
2022-08-12T14:14:03.375Z,101087.38
2022-08-12T14:16:37.737Z,101074.47
2022-08-12T14:19:22.237Z,101089.69
2022-08-12T14:22:01.154Z,101083.56
2022-08-12T14:24:35.144Z,101084.53
2022-08-12T14:27:03.598Z,101083.31
2022-08-12T14:29:38.238Z,101088.38
2022-08-12T14:32:22.383Z,101085.16
2022-08-12T14:34:51.472Z,101079.19
2022-08-12T14:37:56.196Z,101083.59
2022-08-12T14:40:18.626Z,101075.06
2022-08-12T14:42:47.062Z,101077.63
2022-08-12T14:45:13.823Z,101082.91
2022-08-12T14:47:53.649Z,101070.09
2022-08-12T14:50:37.369Z,101068.16
2022-08-12T14:55:13.870Z,101068.38
2022-08-12T14:59:20.635Z,101077.88
2022-08-12T15:01:50.482Z,101067.09
2022-08-12T15:04:26.228Z,101060.69
2022-08-12T15:06:53.065Z,101062.19
2022-08-12T15:09:28.700Z,101072.25
2022-08-12T15:12:03.095Z,101065.03
2022-08-12T15:14:31.027Z,101059.91
2022-08-12T15:17:00.522Z,101061.84
2022-08-12T15:20:09.240Z,101062.97
2022-08-12T15:22:36.884Z,101056.59
2022-08-12T15:25:07.151Z,101057.84
2022-08-12T15:28:04.198Z,101056.66
2022-08-12T15:30:30.937Z,101063.31
2022-08-12T15:32:57.611Z,101049.75
2022-08-12T15:35:27.425Z,101061.78
2022-08-12T15:38:09.600Z,101059.47
2022-08-12T15:44:14.176Z,101054.13
2022-08-12T15:46:15.366Z,101059.47
2022-08-12T15:48:46.953Z,101053.84
2022-08-12T15:51:57.406Z,101058.09
2022-08-12T15:54:33.352Z,101052.09
2022-08-12T15:57:07.949Z,101059.41
2022-08-12T16:00:04.076Z,101060.78
2022-08-12T16:02:23.349Z,101052.44
2022-08-12T16:04:53.729Z,101053.41
2022-08-12T16:07:29.720Z,101056.53
2022-08-12T16:10:06.756Z,101047.75
2022-08-12T16:13:12.101Z,101056.09
2022-08-12T16:16:01.497Z,101053.63
2022-08-12T16:18:31.329Z,101040.91
2022-08-12T16:20:58.190Z,101043.50
2022-08-12T16:23:51.991Z,101037.78
2022-08-12T16:26:15.282Z,101041.97
2022-08-12T16:28:47.434Z,101037.41
2022-08-12T16:31:22.493Z,101022.75
2022-08-12T16:33:59.284Z,101036.88
2022-08-12T16:36:27.978Z,101036.13
2022-08-12T16:38:54.642Z,101035.91
2022-08-12T16:41:22.604Z,101033.22
2022-08-12T16:43:50.451Z,101026.09
2022-08-12T16:46:31.086Z,101023.59
2022-08-12T16:48:59.672Z,101016.50
2022-08-12T16:51:37.572Z,101027.28
2022-08-12T16:54:14.191Z,101023.56
2022-08-12T16:56:54.840Z,101026.47
2022-08-12T16:59:30.844Z,101019.88
2022-08-12T17:02:31.755Z,101018.09
2022-08-12T17:05:03.200Z,101013.78
2022-08-12T17:07:36.444Z,101013.38
2022-08-12T17:10:13.985Z,101006.44
2022-08-12T17:12:45.329Z,101015.72
2022-08-12T17:15:50.856Z,101017.97
2022-08-12T17:18:42.161Z,101017.97
2022-08-12T17:20:49.076Z,101009.72
2022-08-12T17:23:17.993Z,101009.47
2022-08-12T17:25:52.355Z,101011.13
2022-08-12T17:28:21.300Z,101007.06
2022-08-12T17:30:57.245Z,101015.44
2022-08-12T17:33:27.701Z,101018.31
2022-08-12T17:36:05.554Z,101019.16
2022-08-12T17:38:34.672Z,101008.00
2022-08-12T17:41:22.483Z,101001.19
2022-08-12T17:43:58.473Z,101001.38
2022-08-12T17:46:33.674Z,101006.31
2022-08-12T17:49:00.494Z,101007.50
2022-08-12T17:51:50.126Z,101008.00
2022-08-12T17:54:17.454Z,101018.59
2022-08-12T17:56:47.145Z,101009.03
2022-08-12T17:59:13.927Z,101012.28
2022-08-12T18:02:02.653Z,101013.97
2022-08-12T18:04:35.444Z,101013.09
2022-08-12T18:07:02.814Z,101021.78
2022-08-12T18:09:36.183Z,101031.34
2022-08-12T18:12:24.778Z,101023.94
2022-08-12T18:15:01.013Z,101024.25
2022-08-12T18:17:34.725Z,101025.34
2022-08-12T18:20:15.415Z,101041.13
2022-08-12T18:22:43.428Z,101033.63
2022-08-12T18:26:13.016Z,101036.78
2022-08-12T18:28:16.126Z,101040.34
2022-08-12T18:30:53.293Z,101028.19
2022-08-12T18:33:24.737Z,101048.59
2022-08-12T18:35:53.357Z,101049.38
2022-08-12T18:38:22.443Z,101042.22
2022-08-12T18:41:10.082Z,101044.13
2022-08-12T18:43:57.650Z,101049.47
2022-08-12T18:46:55.376Z,101048.44
2022-08-12T18:49:31.986Z,101058.63
2022-08-12T18:52:04.185Z,101055.53
2022-08-12T18:54:34.853Z,101058.59
2022-08-12T18:57:07.136Z,101056.59
2022-08-12T19:00:01.781Z,101055.28
2022-08-12T19:02:36.699Z,101060.03
2022-08-12T19:05:09.947Z,101060.44
2022-08-12T19:07:57.779Z,101062.50
2022-08-12T19:10:32.083Z,101067.25
2022-08-12T19:13:24.365Z,101061.63
2022-08-12T19:15:57.375Z,101065.06
2022-08-12T19:18:29.789Z,101070.44
2022-08-12T19:21:00.407Z,101072.31
2022-08-12T19:23:35.566Z,101080.97
2022-08-12T19:26:05.030Z,101070.63
2022-08-12T19:28:34.808Z,101081.47
2022-08-12T19:31:50.864Z,101078.31
2022-08-12T19:38:03.957Z,101081.25
2022-08-12T19:40:32.531Z,101073.53
2022-08-12T19:43:17.272Z,101073.00
2022-08-12T19:45:53.114Z,101083.22
2022-08-12T19:48:23.465Z,101079.22
2022-08-12T19:50:53.548Z,101086.00
2022-08-12T19:53:24.107Z,101083.16
2022-08-12T19:55:53.392Z,101092.38
2022-08-12T19:58:20.410Z,101089.16
2022-08-12T20:00:53.408Z,101087.56
2022-08-12T20:03:38.505Z,101088.25
2022-08-12T20:06:13.646Z,101086.22
2022-08-12T20:08:48.614Z,101095.28
2022-08-12T20:12:11.401Z,101098.69
2022-08-12T20:14:04.439Z,101100.41
2022-08-12T20:16:57.457Z,101101.75
2022-08-12T20:19:52.697Z,101104.03
2022-08-12T20:22:24.384Z,101104.34
2022-08-12T20:24:57.835Z,101106.00
2022-08-12T20:28:03.280Z,101111.09
2022-08-12T20:30:52.322Z,101093.09
2022-08-12T20:33:18.896Z,101105.25
2022-08-12T20:36:06.496Z,101101.00
2022-08-12T20:38:45.865Z,101105.75
2022-08-12T20:41:17.646Z,101108.50
2022-08-12T20:43:59.244Z,101113.19
2022-08-12T20:46:36.265Z,101110.66
2022-08-12T20:49:17.391Z,101106.84
2022-08-12T20:51:51.052Z,101048.31
2022-08-12T20:54:23.131Z,101100.00
2022-08-12T20:57:09.818Z,101104.34
2022-08-12T20:59:49.544Z,101108.91
2022-08-12T21:02:24.392Z,101100.22
2022-08-12T21:05:19.599Z,101107.34
2022-08-12T21:08:02.550Z,101070.50
2022-08-12T21:10:35.900Z,101101.69
2022-08-12T21:13:20.178Z,101107.00
2022-08-12T21:15:54.603Z,101111.31
2022-08-12T21:18:30.822Z,101093.41
2022-08-12T21:20:59.542Z,101113.50
2022-08-12T21:23:30.837Z,101108.31
2022-08-12T21:26:12.376Z,101112.59
2022-08-12T21:29:04.252Z,101107.56
2022-08-12T21:32:36.732Z,101111.91
2022-08-12T21:34:42.478Z,101114.50
2022-08-12T21:37:26.907Z,101094.63
2022-08-12T21:43:01.097Z,101114.16
2022-08-12T21:45:47.811Z,101103.25
2022-08-12T21:48:20.033Z,101124.38
2022-08-12T21:50:46.540Z,101116.44
2022-08-12T21:53:17.993Z,101117.56
2022-08-12T21:55:47.702Z,101125.56
2022-08-12T21:58:21.019Z,101133.44
2022-08-12T22:00:47.771Z,101130.84
2022-08-12T22:04:03.623Z,101132.63
2022-08-12T22:06:30.846Z,101135.72
2022-08-12T22:09:16.711Z,101131.44
2022-08-12T22:11:49.056Z,101141.28
2022-08-12T22:14:23.672Z,101142.47
2022-08-12T22:16:53.078Z,101137.16
2022-08-12T22:19:20.863Z,101132.06
2022-08-12T22:21:53.362Z,101127.03
2022-08-12T22:24:26.230Z,101129.56
2022-08-12T22:27:18.215Z,101130.59
2022-08-12T22:30:07.216Z,101129.94
2022-08-12T22:32:34.202Z,101131.22
2022-08-12T22:35:23.172Z,101126.41
2022-08-12T22:37:50.709Z,101130.91
2022-08-12T22:40:20.404Z,101136.50
2022-08-12T22:43:06.040Z,101134.81
2022-08-12T22:45:58.877Z,101132.41
2022-08-12T22:48:26.400Z,101132.41
2022-08-12T22:50:56.512Z,101134.50
2022-08-12T22:53:26.510Z,101129.38
2022-08-12T22:56:06.808Z,101126.19
2022-08-12T22:58:40.197Z,101125.31
2022-08-12T23:01:07.879Z,101115.44
2022-08-12T23:03:48.828Z,101132.28
2022-08-12T23:06:19.847Z,101127.19
2022-08-12T23:08:48.079Z,101127.94
2022-08-12T23:11:17.229Z,101129.00
2022-08-12T23:13:54.658Z,101127.38
2022-08-12T23:16:31.563Z,101132.09
2022-08-12T23:19:18.033Z,101130.34
2022-08-12T23:22:06.512Z,101134.06
2022-08-12T23:24:41.184Z,101124.41
2022-08-12T23:27:50.743Z,101118.44
2022-08-12T23:30:31.829Z,101134.41
2022-08-12T23:33:13.053Z,101124.03
2022-08-12T23:35:53.917Z,101123.03
2022-08-12T23:38:31.365Z,101126.94
2022-08-12T23:41:05.136Z,101109.72
2022-08-12T23:43:39.279Z,101112.59
2022-08-12T23:46:12.359Z,101114.16
2022-08-12T23:48:48.101Z,101113.44
2022-08-12T23:51:22.705Z,101118.81
2022-08-12T23:53:56.438Z,101113.88
2022-08-12T23:56:27.586Z,101117.22
2022-08-12T23:58:57.631Z,101114.91
